sensor_id;sensor_type;location;lat;lon;timestamp;P1;durP1;ratioP1;P2;durP2;ratioP2
84329;SDS011;74510;42.676;23.432;2024-03-08T00:00:14;9.00;;;4.65;;
84329;SDS011;74510;42.676;23.432;2024-03-08T00:02:46;7.55;;;3.90;;
84329;SDS011;74510;42.676;23.432;2024-03-08T00:05:12;4.55;;;3.22;;
84329;SDS011;74510;42.676;23.432;2024-03-08T00:07:39;5.80;;;3.40;;
84329;SDS011;74510;42.676;23.432;2024-03-08T00:10:05;5.78;;;3.38;;
84329;SDS011;74510;42.676;23.432;2024-03-08T00:12:36;5.97;;;3.30;;
84329;SDS011;74510;42.676;23.432;2024-03-08T00:15:07;6.07;;;3.17;;
84329;SDS011;74510;42.676;23.432;2024-03-08T00:17:38;6.78;;;3.20;;
84329;SDS011;74510;42.676;23.432;2024-03-08T00:20:05;6.05;;;3.63;;
84329;SDS011;74510;42.676;23.432;2024-03-08T00:22:33;7.03;;;3.30;;
84329;SDS011;74510;42.676;23.432;2024-03-08T00:24:59;6.70;;;3.85;;
84329;SDS011;74510;42.676;23.432;2024-03-08T00:27:25;7.38;;;3.72;;
84329;SDS011;74510;42.676;23.432;2024-03-08T00:29:50;6.45;;;3.50;;
84329;SDS011;74510;42.676;23.432;2024-03-08T00:32:16;6.05;;;3.78;;
84329;SDS011;74510;42.676;23.432;2024-03-08T00:34:42;6.85;;;3.67;;
84329;SDS011;74510;42.676;23.432;2024-03-08T00:37:07;8.75;;;4.45;;
84329;SDS011;74510;42.676;23.432;2024-03-08T00:39:33;8.18;;;4.07;;
84329;SDS011;74510;42.676;23.432;2024-03-08T00:41:59;7.28;;;4.15;;
84329;SDS011;74510;42.676;23.432;2024-03-08T00:44:25;7.53;;;4.18;;
84329;SDS011;74510;42.676;23.432;2024-03-08T00:46:50;7.72;;;4.30;;
84329;SDS011;74510;42.676;23.432;2024-03-08T00:49:16;8.23;;;3.88;;
84329;SDS011;74510;42.676;23.432;2024-03-08T00:51:42;8.77;;;4.68;;
84329;SDS011;74510;42.676;23.432;2024-03-08T00:54:08;10.27;;;5.85;;
84329;SDS011;74510;42.676;23.432;2024-03-08T00:56:34;8.65;;;4.25;;
84329;SDS011;74510;42.676;23.432;2024-03-08T00:59:00;7.35;;;3.65;;
84329;SDS011;74510;42.676;23.432;2024-03-08T01:01:27;8.70;;;4.68;;
84329;SDS011;74510;42.676;23.432;2024-03-08T01:03:53;4.38;;;2.47;;
84329;SDS011;74510;42.676;23.432;2024-03-08T01:06:18;7.38;;;3.00;;
84329;SDS011;74510;42.676;23.432;2024-03-08T01:08:44;4.85;;;3.03;;
84329;SDS011;74510;42.676;23.432;2024-03-08T01:11:10;4.35;;;2.67;;
84329;SDS011;74510;42.676;23.432;2024-03-08T01:13:37;3.33;;;1.98;;
84329;SDS011;74510;42.676;23.432;2024-03-08T01:16:03;3.63;;;2.53;;
84329;SDS011;74510;42.676;23.432;2024-03-08T01:18:29;3.17;;;2.30;;
84329;SDS011;74510;42.676;23.432;2024-03-08T01:20:54;3.35;;;2.38;;
84329;SDS011;74510;42.676;23.432;2024-03-08T01:23:19;2.88;;;1.95;;
84329;SDS011;74510;42.676;23.432;2024-03-08T01:25:45;3.38;;;2.35;;
84329;SDS011;74510;42.676;23.432;2024-03-08T01:28:10;2.85;;;1.83;;
84329;SDS011;74510;42.676;23.432;2024-03-08T01:30:36;3.03;;;1.65;;
84329;SDS011;74510;42.676;23.432;2024-03-08T01:33:02;2.95;;;1.23;;
84329;SDS011;74510;42.676;23.432;2024-03-08T01:35:28;1.73;;;1.25;;
84329;SDS011;74510;42.676;23.432;2024-03-08T01:37:53;2.58;;;2.03;;
84329;SDS011;74510;42.676;23.432;2024-03-08T01:40:19;2.45;;;2.08;;
84329;SDS011;74510;42.676;23.432;2024-03-08T01:42:45;2.35;;;1.95;;
84329;SDS011;74510;42.676;23.432;2024-03-08T01:45:10;2.85;;;2.10;;
84329;SDS011;74510;42.676;23.432;2024-03-08T01:47:36;2.50;;;1.80;;
84329;SDS011;74510;42.676;23.432;2024-03-08T01:50:02;2.65;;;2.17;;
84329;SDS011;74510;42.676;23.432;2024-03-08T01:52:31;2.75;;;2.35;;
84329;SDS011;74510;42.676;23.432;2024-03-08T01:55:01;4.50;;;2.33;;
84329;SDS011;74510;42.676;23.432;2024-03-08T01:57:28;3.08;;;1.95;;
84329;SDS011;74510;42.676;23.432;2024-03-08T01:59:58;3.58;;;2.08;;
84329;SDS011;74510;42.676;23.432;2024-03-08T02:02:24;3.80;;;2.58;;
84329;SDS011;74510;42.676;23.432;2024-03-08T02:04:50;4.40;;;2.78;;
84329;SDS011;74510;42.676;23.432;2024-03-08T02:07:17;4.43;;;2.88;;
84329;SDS011;74510;42.676;23.432;2024-03-08T02:09:43;7.32;;;4.28;;
84329;SDS011;74510;42.676;23.432;2024-03-08T02:12:08;8.45;;;6.07;;
84329;SDS011;74510;42.676;23.432;2024-03-08T02:14:35;6.75;;;4.97;;
84329;SDS011;74510;42.676;23.432;2024-03-08T02:17:01;4.65;;;2.55;;
84329;SDS011;74510;42.676;23.432;2024-03-08T02:19:27;5.57;;;3.50;;
84329;SDS011;74510;42.676;23.432;2024-03-08T02:21:52;5.13;;;2.80;;
84329;SDS011;74510;42.676;23.432;2024-03-08T02:24:18;6.07;;;3.50;;
84329;SDS011;74510;42.676;23.432;2024-03-08T02:26:44;6.90;;;4.47;;
84329;SDS011;74510;42.676;23.432;2024-03-08T02:29:09;6.93;;;5.05;;
84329;SDS011;74510;42.676;23.432;2024-03-08T02:31:35;5.45;;;3.00;;
84329;SDS011;74510;42.676;23.432;2024-03-08T02:34:00;5.70;;;3.35;;
84329;SDS011;74510;42.676;23.432;2024-03-08T02:36:26;5.82;;;3.40;;
84329;SDS011;74510;42.676;23.432;2024-03-08T02:38:51;6.78;;;3.28;;
84329;SDS011;74510;42.676;23.432;2024-03-08T02:41:16;4.88;;;2.95;;
84329;SDS011;74510;42.676;23.432;2024-03-08T02:43:42;3.35;;;2.33;;
84329;SDS011;74510;42.676;23.432;2024-03-08T02:46:09;3.25;;;2.20;;
84329;SDS011;74510;42.676;23.432;2024-03-08T02:48:35;2.67;;;1.90;;
84329;SDS011;74510;42.676;23.432;2024-03-08T02:51:00;2.53;;;1.65;;
84329;SDS011;74510;42.676;23.432;2024-03-08T02:53:27;2.60;;;1.75;;
84329;SDS011;74510;42.676;23.432;2024-03-08T02:55:52;1.73;;;1.60;;
84329;SDS011;74510;42.676;23.432;2024-03-08T02:58:18;2.78;;;2.10;;
84329;SDS011;74510;42.676;23.432;2024-03-08T03:00:43;2.20;;;1.98;;
84329;SDS011;74510;42.676;23.432;2024-03-08T03:03:09;3.20;;;1.92;;
84329;SDS011;74510;42.676;23.432;2024-03-08T03:05:34;2.15;;;1.75;;
84329;SDS011;74510;42.676;23.432;2024-03-08T03:08:00;2.58;;;1.88;;
84329;SDS011;74510;42.676;23.432;2024-03-08T03:10:25;2.63;;;1.80;;
84329;SDS011;74510;42.676;23.432;2024-03-08T03:12:51;2.55;;;2.05;;
84329;SDS011;74510;42.676;23.432;2024-03-08T03:15:17;2.17;;;1.83;;
84329;SDS011;74510;42.676;23.432;2024-03-08T03:17:46;3.08;;;1.90;;
84329;SDS011;74510;42.676;23.432;2024-03-08T03:20:12;3.45;;;2.67;;
84329;SDS011;74510;42.676;23.432;2024-03-08T03:22:39;10.57;;;5.40;;
84329;SDS011;74510;42.676;23.432;2024-03-08T03:25:12;10.27;;;5.55;;
84329;SDS011;74510;42.676;23.432;2024-03-08T03:27:37;5.05;;;3.33;;
84329;SDS011;74510;42.676;23.432;2024-03-08T03:30:04;4.50;;;2.83;;
84329;SDS011;74510;42.676;23.432;2024-03-08T03:32:46;2.67;;;2.15;;
84329;SDS011;74510;42.676;23.432;2024-03-08T03:35:16;1.98;;;1.63;;
84329;SDS011;74510;42.676;23.432;2024-03-08T03:37:45;3.00;;;2.40;;
84329;SDS011;74510;42.676;23.432;2024-03-08T03:40:26;1.83;;;1.60;;
84329;SDS011;74510;42.676;23.432;2024-03-08T03:42:55;2.03;;;1.67;;
84329;SDS011;74510;42.676;23.432;2024-03-08T03:45:21;2.17;;;1.25;;
84329;SDS011;74510;42.676;23.432;2024-03-08T03:47:46;2.00;;;1.45;;
84329;SDS011;74510;42.676;23.432;2024-03-08T03:50:12;1.70;;;1.38;;
84329;SDS011;74510;42.676;23.432;2024-03-08T03:52:37;2.58;;;1.30;;
84329;SDS011;74510;42.676;23.432;2024-03-08T03:55:03;2.10;;;1.27;;
84329;SDS011;74510;42.676;23.432;2024-03-08T03:57:33;3.80;;;2.78;;
84329;SDS011;74510;42.676;23.432;2024-03-08T03:59:58;2.97;;;1.95;;
84329;SDS011;74510;42.676;23.432;2024-03-08T04:02:24;7.18;;;4.63;;
84329;SDS011;74510;42.676;23.432;2024-03-08T04:04:51;10.70;;;7.15;;
84329;SDS011;74510;42.676;23.432;2024-03-08T04:07:17;5.90;;;4.60;;
84329;SDS011;74510;42.676;23.432;2024-03-08T04:09:42;7.85;;;4.38;;
84329;SDS011;74510;42.676;23.432;2024-03-08T04:12:08;5.20;;;3.35;;
84329;SDS011;74510;42.676;23.432;2024-03-08T04:14:34;3.95;;;3.10;;
84329;SDS011;74510;42.676;23.432;2024-03-08T04:17:00;4.13;;;2.97;;
84329;SDS011;74510;42.676;23.432;2024-03-08T04:19:26;3.92;;;2.83;;
84329;SDS011;74510;42.676;23.432;2024-03-08T04:21:51;3.45;;;3.05;;
84329;SDS011;74510;42.676;23.432;2024-03-08T04:24:17;4.18;;;3.17;;
84329;SDS011;74510;42.676;23.432;2024-03-08T04:26:42;4.75;;;3.85;;
84329;SDS011;74510;42.676;23.432;2024-03-08T04:29:08;8.20;;;5.25;;
84329;SDS011;74510;42.676;23.432;2024-03-08T04:31:34;5.75;;;4.55;;
84329;SDS011;74510;42.676;23.432;2024-03-08T04:33:59;5.93;;;4.90;;
84329;SDS011;74510;42.676;23.432;2024-03-08T04:36:24;5.13;;;3.90;;
84329;SDS011;74510;42.676;23.432;2024-03-08T04:38:50;5.55;;;3.60;;
84329;SDS011;74510;42.676;23.432;2024-03-08T04:41:16;5.60;;;3.97;;
84329;SDS011;74510;42.676;23.432;2024-03-08T04:43:42;6.47;;;4.05;;
84329;SDS011;74510;42.676;23.432;2024-03-08T04:46:07;6.13;;;3.30;;
84329;SDS011;74510;42.676;23.432;2024-03-08T04:48:33;5.20;;;3.85;;
84329;SDS011;74510;42.676;23.432;2024-03-08T04:53:27;6.97;;;4.78;;
84329;SDS011;74510;42.676;23.432;2024-03-08T04:55:52;7.38;;;3.78;;
84329;SDS011;74510;42.676;23.432;2024-03-08T04:58:18;6.85;;;4.28;;
84329;SDS011;74510;42.676;23.432;2024-03-08T05:00:43;8.38;;;4.15;;
84329;SDS011;74510;42.676;23.432;2024-03-08T05:03:09;7.45;;;4.03;;
84329;SDS011;74510;42.676;23.432;2024-03-08T05:05:34;8.75;;;4.75;;
84329;SDS011;74510;42.676;23.432;2024-03-08T05:08:00;10.57;;;4.80;;
84329;SDS011;74510;42.676;23.432;2024-03-08T05:10:26;7.93;;;4.72;;
84329;SDS011;74510;42.676;23.432;2024-03-08T05:12:51;8.93;;;4.68;;
84329;SDS011;74510;42.676;23.432;2024-03-08T05:15:17;6.93;;;4.43;;
84329;SDS011;74510;42.676;23.432;2024-03-08T05:17:42;8.43;;;4.60;;
84329;SDS011;74510;42.676;23.432;2024-03-08T05:20:08;9.23;;;4.57;;
84329;SDS011;74510;42.676;23.432;2024-03-08T05:22:37;8.57;;;4.90;;
84329;SDS011;74510;42.676;23.432;2024-03-08T05:25:02;12.15;;;6.47;;
84329;SDS011;74510;42.676;23.432;2024-03-08T05:27:28;22.08;;;9.57;;
84329;SDS011;74510;42.676;23.432;2024-03-08T05:29:53;23.67;;;10.32;;
84329;SDS011;74510;42.676;23.432;2024-03-08T05:32:19;18.10;;;9.13;;
84329;SDS011;74510;42.676;23.432;2024-03-08T05:34:44;11.82;;;6.75;;
84329;SDS011;74510;42.676;23.432;2024-03-08T05:37:10;15.15;;;7.28;;
84329;SDS011;74510;42.676;23.432;2024-03-08T05:39:36;14.23;;;6.63;;
84329;SDS011;74510;42.676;23.432;2024-03-08T05:42:01;15.75;;;6.13;;
84329;SDS011;74510;42.676;23.432;2024-03-08T05:44:27;11.88;;;6.30;;
84329;SDS011;74510;42.676;23.432;2024-03-08T05:46:53;20.30;;;7.65;;
84329;SDS011;74510;42.676;23.432;2024-03-08T05:49:19;16.38;;;6.45;;
84329;SDS011;74510;42.676;23.432;2024-03-08T05:51:44;16.15;;;7.00;;
84329;SDS011;74510;42.676;23.432;2024-03-08T05:54:12;13.80;;;6.78;;
84329;SDS011;74510;42.676;23.432;2024-03-08T05:56:38;11.32;;;5.78;;
84329;SDS011;74510;42.676;23.432;2024-03-08T05:59:08;9.02;;;4.95;;
84329;SDS011;74510;42.676;23.432;2024-03-08T06:01:34;9.10;;;5.47;;
84329;SDS011;74510;42.676;23.432;2024-03-08T06:04:01;10.65;;;5.63;;
84329;SDS011;74510;42.676;23.432;2024-03-08T06:06:27;9.95;;;5.25;;
84329;SDS011;74510;42.676;23.432;2024-03-08T06:08:53;10.30;;;5.40;;
84329;SDS011;74510;42.676;23.432;2024-03-08T06:11:21;8.75;;;5.88;;
84329;SDS011;74510;42.676;23.432;2024-03-08T06:13:47;9.23;;;5.85;;
84329;SDS011;74510;42.676;23.432;2024-03-08T06:16:13;9.75;;;6.18;;
84329;SDS011;74510;42.676;23.432;2024-03-08T06:18:38;8.43;;;5.00;;
84329;SDS011;74510;42.676;23.432;2024-03-08T06:21:07;7.65;;;4.78;;
84329;SDS011;74510;42.676;23.432;2024-03-08T06:23:41;9.70;;;5.25;;
84329;SDS011;74510;42.676;23.432;2024-03-08T06:26:09;8.90;;;4.82;;
84329;SDS011;74510;42.676;23.432;2024-03-08T06:28:34;9.63;;;5.55;;
84329;SDS011;74510;42.676;23.432;2024-03-08T06:31:00;8.90;;;5.43;;
84329;SDS011;74510;42.676;23.432;2024-03-08T06:33:27;9.05;;;4.90;;
84329;SDS011;74510;42.676;23.432;2024-03-08T06:35:53;11.68;;;5.38;;
84329;SDS011;74510;42.676;23.432;2024-03-08T06:38:25;7.30;;;4.13;;
84329;SDS011;74510;42.676;23.432;2024-03-08T06:40:50;8.30;;;4.90;;
84329;SDS011;74510;42.676;23.432;2024-03-08T06:43:16;10.50;;;5.30;;
84329;SDS011;74510;42.676;23.432;2024-03-08T06:45:43;9.27;;;5.82;;
84329;SDS011;74510;42.676;23.432;2024-03-08T06:48:19;9.95;;;5.10;;
84329;SDS011;74510;42.676;23.432;2024-03-08T06:50:45;11.15;;;6.30;;
84329;SDS011;74510;42.676;23.432;2024-03-08T06:53:11;11.13;;;6.82;;
84329;SDS011;74510;42.676;23.432;2024-03-08T06:55:37;6.95;;;3.90;;
84329;SDS011;74510;42.676;23.432;2024-03-08T06:58:03;6.07;;;3.63;;
84329;SDS011;74510;42.676;23.432;2024-03-08T07:00:29;5.35;;;3.25;;
84329;SDS011;74510;42.676;23.432;2024-03-08T07:02:55;4.75;;;3.17;;
84329;SDS011;74510;42.676;23.432;2024-03-08T07:05:22;6.38;;;3.65;;
84329;SDS011;74510;42.676;23.432;2024-03-08T07:07:49;10.00;;;5.30;;
84329;SDS011;74510;42.676;23.432;2024-03-08T07:10:16;10.07;;;5.13;;
84329;SDS011;74510;42.676;23.432;2024-03-08T07:12:41;4.50;;;3.30;;
84329;SDS011;74510;42.676;23.432;2024-03-08T07:15:07;4.80;;;2.95;;
84329;SDS011;74510;42.676;23.432;2024-03-08T07:17:38;7.03;;;3.70;;
84329;SDS011;74510;42.676;23.432;2024-03-08T07:20:04;7.00;;;3.83;;
84329;SDS011;74510;42.676;23.432;2024-03-08T07:22:35;6.28;;;3.63;;
84329;SDS011;74510;42.676;23.432;2024-03-08T07:25:02;4.35;;;3.22;;
84329;SDS011;74510;42.676;23.432;2024-03-08T07:27:30;4.70;;;3.25;;
84329;SDS011;74510;42.676;23.432;2024-03-08T07:29:55;4.18;;;2.97;;
84329;SDS011;74510;42.676;23.432;2024-03-08T07:32:23;5.82;;;3.60;;
84329;SDS011;74510;42.676;23.432;2024-03-08T07:34:50;3.67;;;3.10;;
84329;SDS011;74510;42.676;23.432;2024-03-08T07:37:16;4.82;;;3.17;;
84329;SDS011;74510;42.676;23.432;2024-03-08T07:39:42;3.33;;;2.58;;
84329;SDS011;74510;42.676;23.432;2024-03-08T07:42:08;4.72;;;3.10;;
84329;SDS011;74510;42.676;23.432;2024-03-08T07:44:35;4.22;;;2.78;;
84329;SDS011;74510;42.676;23.432;2024-03-08T07:47:00;4.13;;;2.92;;
84329;SDS011;74510;42.676;23.432;2024-03-08T07:49:26;3.67;;;2.88;;
84329;SDS011;74510;42.676;23.432;2024-03-08T07:51:51;3.90;;;2.55;;
84329;SDS011;74510;42.676;23.432;2024-03-08T07:54:17;3.75;;;2.35;;
84329;SDS011;74510;42.676;23.432;2024-03-08T07:56:42;2.03;;;1.67;;
84329;SDS011;74510;42.676;23.432;2024-03-08T07:59:08;2.78;;;2.22;;
84329;SDS011;74510;42.676;23.432;2024-03-08T08:01:33;3.40;;;2.25;;
84329;SDS011;74510;42.676;23.432;2024-03-08T08:03:59;5.30;;;3.10;;
84329;SDS011;74510;42.676;23.432;2024-03-08T08:06:26;3.58;;;2.65;;
84329;SDS011;74510;42.676;23.432;2024-03-08T08:08:52;3.53;;;2.30;;
84329;SDS011;74510;42.676;23.432;2024-03-08T08:11:18;6.63;;;3.50;;
84329;SDS011;74510;42.676;23.432;2024-03-08T08:13:43;3.13;;;1.92;;
84329;SDS011;74510;42.676;23.432;2024-03-08T08:16:09;4.72;;;3.35;;
84329;SDS011;74510;42.676;23.432;2024-03-08T08:18:35;2.85;;;2.65;;
84329;SDS011;74510;42.676;23.432;2024-03-08T08:21:02;3.55;;;2.33;;
84329;SDS011;74510;42.676;23.432;2024-03-08T08:23:27;3.75;;;2.35;;
84329;SDS011;74510;42.676;23.432;2024-03-08T08:25:54;5.50;;;3.30;;
84329;SDS011;74510;42.676;23.432;2024-03-08T08:28:20;5.72;;;3.85;;
84329;SDS011;74510;42.676;23.432;2024-03-08T08:30:46;3.30;;;2.20;;
84329;SDS011;74510;42.676;23.432;2024-03-08T08:33:11;4.30;;;2.90;;
84329;SDS011;74510;42.676;23.432;2024-03-08T08:35:37;4.10;;;3.17;;
84329;SDS011;74510;42.676;23.432;2024-03-08T08:38:03;6.07;;;2.90;;
84329;SDS011;74510;42.676;23.432;2024-03-08T08:40:29;4.55;;;2.88;;
84329;SDS011;74510;42.676;23.432;2024-03-08T08:42:58;3.65;;;2.10;;
84329;SDS011;74510;42.676;23.432;2024-03-08T08:45:23;4.55;;;2.60;;
84329;SDS011;74510;42.676;23.432;2024-03-08T08:47:49;3.50;;;2.35;;
84329;SDS011;74510;42.676;23.432;2024-03-08T08:50:15;3.80;;;2.50;;
84329;SDS011;74510;42.676;23.432;2024-03-08T08:52:41;3.95;;;2.28;;
84329;SDS011;74510;42.676;23.432;2024-03-08T08:55:08;4.45;;;2.47;;
84329;SDS011;74510;42.676;23.432;2024-03-08T08:57:34;2.83;;;2.13;;
84329;SDS011;74510;42.676;23.432;2024-03-08T09:00:00;3.75;;;2.22;;
84329;SDS011;74510;42.676;23.432;2024-03-08T09:02:26;2.17;;;1.67;;
84329;SDS011;74510;42.676;23.432;2024-03-08T09:04:52;3.55;;;3.15;;
84329;SDS011;74510;42.676;23.432;2024-03-08T09:07:18;3.05;;;1.92;;
84329;SDS011;74510;42.676;23.432;2024-03-08T09:09:44;2.40;;;1.77;;
84329;SDS011;74510;42.676;23.432;2024-03-08T09:12:10;2.55;;;2.05;;
84329;SDS011;74510;42.676;23.432;2024-03-08T09:14:38;3.90;;;2.30;;
84329;SDS011;74510;42.676;23.432;2024-03-08T09:17:05;3.78;;;2.35;;
84329;SDS011;74510;42.676;23.432;2024-03-08T09:19:33;3.28;;;2.75;;
84329;SDS011;74510;42.676;23.432;2024-03-08T09:21:59;3.28;;;2.10;;
84329;SDS011;74510;42.676;23.432;2024-03-08T09:24:24;7.25;;;2.40;;
84329;SDS011;74510;42.676;23.432;2024-03-08T09:26:49;2.90;;;2.10;;
84329;SDS011;74510;42.676;23.432;2024-03-08T09:29:15;3.97;;;2.22;;
84329;SDS011;74510;42.676;23.432;2024-03-08T09:31:41;3.70;;;1.55;;
84329;SDS011;74510;42.676;23.432;2024-03-08T09:34:06;2.10;;;1.90;;
84329;SDS011;74510;42.676;23.432;2024-03-08T09:36:33;2.42;;;1.73;;
84329;SDS011;74510;42.676;23.432;2024-03-08T09:38:59;2.38;;;1.45;;
84329;SDS011;74510;42.676;23.432;2024-03-08T09:41:25;3.75;;;1.92;;
84329;SDS011;74510;42.676;23.432;2024-03-08T09:43:51;1.95;;;1.45;;
84329;SDS011;74510;42.676;23.432;2024-03-08T09:46:17;2.75;;;1.90;;
84329;SDS011;74510;42.676;23.432;2024-03-08T09:48:45;2.22;;;1.20;;
84329;SDS011;74510;42.676;23.432;2024-03-08T09:51:12;5.60;;;1.98;;
84329;SDS011;74510;42.676;23.432;2024-03-08T09:53:40;2.17;;;1.40;;
84329;SDS011;74510;42.676;23.432;2024-03-08T09:56:07;1.58;;;1.48;;
84329;SDS011;74510;42.676;23.432;2024-03-08T09:58:33;2.20;;;1.58;;
84329;SDS011;74510;42.676;23.432;2024-03-08T10:00:59;7.47;;;3.47;;
84329;SDS011;74510;42.676;23.432;2024-03-08T10:03:27;2.80;;;1.90;;
84329;SDS011;74510;42.676;23.432;2024-03-08T10:05:54;1.73;;;1.25;;
84329;SDS011;74510;42.676;23.432;2024-03-08T10:08:25;1.23;;;1.13;;
84329;SDS011;74510;42.676;23.432;2024-03-08T10:10:51;3.47;;;1.67;;
84329;SDS011;74510;42.676;23.432;2024-03-08T10:13:16;2.80;;;1.85;;
84329;SDS011;74510;42.676;23.432;2024-03-08T10:15:44;3.38;;;2.50;;
84329;SDS011;74510;42.676;23.432;2024-03-08T10:18:10;2.40;;;2.10;;
84329;SDS011;74510;42.676;23.432;2024-03-08T10:20:35;1.73;;;1.02;;
84329;SDS011;74510;42.676;23.432;2024-03-08T10:23:01;1.85;;;1.25;;
84329;SDS011;74510;42.676;23.432;2024-03-08T10:25:29;1.95;;;1.33;;
84329;SDS011;74510;42.676;23.432;2024-03-08T10:27:59;1.80;;;1.30;;
84329;SDS011;74510;42.676;23.432;2024-03-08T10:30:24;3.45;;;2.03;;
84329;SDS011;74510;42.676;23.432;2024-03-08T10:32:49;3.58;;;2.33;;
84329;SDS011;74510;42.676;23.432;2024-03-08T10:35:16;1.30;;;1.17;;
84329;SDS011;74510;42.676;23.432;2024-03-08T10:37:46;5.05;;;2.13;;
84329;SDS011;74510;42.676;23.432;2024-03-08T10:40:16;2.80;;;1.58;;
84329;SDS011;74510;42.676;23.432;2024-03-08T10:42:53;3.22;;;1.48;;
84329;SDS011;74510;42.676;23.432;2024-03-08T10:45:35;2.22;;;1.23;;
84329;SDS011;74510;42.676;23.432;2024-03-08T10:50:56;6.10;;;2.22;;
84329;SDS011;74510;42.676;23.432;2024-03-08T10:53:22;8.95;;;3.40;;
84329;SDS011;74510;42.676;23.432;2024-03-08T10:55:49;1.80;;;1.23;;
84329;SDS011;74510;42.676;23.432;2024-03-08T10:58:18;3.05;;;1.48;;
84329;SDS011;74510;42.676;23.432;2024-03-08T11:00:46;2.28;;;1.58;;
84329;SDS011;74510;42.676;23.432;2024-03-08T11:06:17;1.02;;;0.90;;
84329;SDS011;74510;42.676;23.432;2024-03-08T11:08:47;0.88;;;0.73;;
84329;SDS011;74510;42.676;23.432;2024-03-08T11:13:57;3.08;;;1.92;;
84329;SDS011;74510;42.676;23.432;2024-03-08T11:21:36;1.13;;;1.02;;
84329;SDS011;74510;42.676;23.432;2024-03-08T11:24:08;1.45;;;1.13;;
84329;SDS011;74510;42.676;23.432;2024-03-08T11:26:39;1.35;;;1.13;;
84329;SDS011;74510;42.676;23.432;2024-03-08T11:31:52;1.60;;;1.30;;
84329;SDS011;74510;42.676;23.432;2024-03-08T11:34:18;1.75;;;1.27;;
84329;SDS011;74510;42.676;23.432;2024-03-08T11:36:44;1.75;;;1.15;;
84329;SDS011;74510;42.676;23.432;2024-03-08T11:39:13;2.35;;;1.58;;
84329;SDS011;74510;42.676;23.432;2024-03-08T11:41:39;1.30;;;0.95;;
84329;SDS011;74510;42.676;23.432;2024-03-08T11:44:06;2.05;;;1.52;;
84329;SDS011;74510;42.676;23.432;2024-03-08T11:46:33;1.92;;;1.30;;
84329;SDS011;74510;42.676;23.432;2024-03-08T11:48:59;1.70;;;1.17;;
84329;SDS011;74510;42.676;23.432;2024-03-08T11:51:25;1.58;;;1.10;;
84329;SDS011;74510;42.676;23.432;2024-03-08T11:53:51;1.40;;;1.02;;
84329;SDS011;74510;42.676;23.432;2024-03-08T11:56:17;2.40;;;1.77;;
84329;SDS011;74510;42.676;23.432;2024-03-08T11:58:55;2.05;;;1.67;;
84329;SDS011;74510;42.676;23.432;2024-03-08T12:01:22;1.17;;;0.85;;
84329;SDS011;74510;42.676;23.432;2024-03-08T12:03:57;1.65;;;1.13;;
84329;SDS011;74510;42.676;23.432;2024-03-08T12:06:24;2.42;;;1.38;;
84329;SDS011;74510;42.676;23.432;2024-03-08T12:08:51;2.92;;;1.83;;
84329;SDS011;74510;42.676;23.432;2024-03-08T12:11:17;2.13;;;1.92;;
84329;SDS011;74510;42.676;23.432;2024-03-08T12:13:47;1.73;;;1.40;;
84329;SDS011;74510;42.676;23.432;2024-03-08T12:18:42;2.45;;;1.60;;
84329;SDS011;74510;42.676;23.432;2024-03-08T12:21:10;1.40;;;1.00;;
84329;SDS011;74510;42.676;23.432;2024-03-08T12:23:37;2.15;;;1.30;;
84329;SDS011;74510;42.676;23.432;2024-03-08T12:26:10;1.77;;;1.33;;
84329;SDS011;74510;42.676;23.432;2024-03-08T12:28:44;1.60;;;1.27;;
84329;SDS011;74510;42.676;23.432;2024-03-08T12:31:13;2.58;;;1.58;;
84329;SDS011;74510;42.676;23.432;2024-03-08T12:33:54;2.25;;;1.40;;
84329;SDS011;74510;42.676;23.432;2024-03-08T12:36:24;1.90;;;1.60;;
84329;SDS011;74510;42.676;23.432;2024-03-08T12:38:50;4.55;;;2.47;;
84329;SDS011;74510;42.676;23.432;2024-03-08T12:41:16;3.08;;;1.60;;
84329;SDS011;74510;42.676;23.432;2024-03-08T12:43:43;2.10;;;1.33;;
84329;SDS011;74510;42.676;23.432;2024-03-08T12:46:16;2.30;;;1.45;;
84329;SDS011;74510;42.676;23.432;2024-03-08T12:48:42;1.83;;;1.23;;
84329;SDS011;74510;42.676;23.432;2024-03-08T12:51:12;1.85;;;1.52;;
84329;SDS011;74510;42.676;23.432;2024-03-08T12:53:42;1.70;;;1.55;;
84329;SDS011;74510;42.676;23.432;2024-03-08T12:56:11;1.70;;;1.27;;
84329;SDS011;74510;42.676;23.432;2024-03-08T12:58:45;2.03;;;1.20;;
84329;SDS011;74510;42.676;23.432;2024-03-08T13:01:10;1.35;;;1.17;;
84329;SDS011;74510;42.676;23.432;2024-03-08T13:03:37;1.88;;;1.70;;
84329;SDS011;74510;42.676;23.432;2024-03-08T13:06:03;2.65;;;1.67;;
84329;SDS011;74510;42.676;23.432;2024-03-08T13:08:36;2.00;;;1.63;;
84329;SDS011;74510;42.676;23.432;2024-03-08T13:11:04;3.50;;;1.73;;
84329;SDS011;74510;42.676;23.432;2024-03-08T13:13:30;2.72;;;1.48;;
84329;SDS011;74510;42.676;23.432;2024-03-08T13:15:55;2.10;;;1.33;;
84329;SDS011;74510;42.676;23.432;2024-03-08T13:18:21;1.50;;;1.05;;
84329;SDS011;74510;42.676;23.432;2024-03-08T13:20:48;2.55;;;1.55;;
84329;SDS011;74510;42.676;23.432;2024-03-08T13:23:16;1.85;;;1.38;;
84329;SDS011;74510;42.676;23.432;2024-03-08T13:25:42;2.17;;;1.60;;
84329;SDS011;74510;42.676;23.432;2024-03-08T13:28:09;3.63;;;1.65;;
84329;SDS011;74510;42.676;23.432;2024-03-08T13:30:35;2.92;;;1.83;;
84329;SDS011;74510;42.676;23.432;2024-03-08T13:33:01;1.92;;;1.15;;
84329;SDS011;74510;42.676;23.432;2024-03-08T13:35:29;2.03;;;1.15;;
84329;SDS011;74510;42.676;23.432;2024-03-08T13:37:55;1.52;;;1.42;;
84329;SDS011;74510;42.676;23.432;2024-03-08T13:40:21;2.20;;;1.48;;
84329;SDS011;74510;42.676;23.432;2024-03-08T13:42:47;2.60;;;1.67;;
84329;SDS011;74510;42.676;23.432;2024-03-08T13:45:14;2.03;;;1.13;;
84329;SDS011;74510;42.676;23.432;2024-03-08T13:47:42;2.63;;;2.00;;
84329;SDS011;74510;42.676;23.432;2024-03-08T13:50:09;1.90;;;1.23;;
84329;SDS011;74510;42.676;23.432;2024-03-08T13:52:38;2.28;;;1.52;;
84329;SDS011;74510;42.676;23.432;2024-03-08T13:55:05;1.83;;;1.33;;
84329;SDS011;74510;42.676;23.432;2024-03-08T13:57:31;1.55;;;1.27;;
84329;SDS011;74510;42.676;23.432;2024-03-08T13:59:57;1.65;;;1.02;;
84329;SDS011;74510;42.676;23.432;2024-03-08T14:02:23;2.25;;;1.50;;
84329;SDS011;74510;42.676;23.432;2024-03-08T14:04:53;1.73;;;1.02;;
84329;SDS011;74510;42.676;23.432;2024-03-08T14:07:19;1.05;;;0.65;;
84329;SDS011;74510;42.676;23.432;2024-03-08T14:09:45;1.90;;;1.33;;
84329;SDS011;74510;42.676;23.432;2024-03-08T14:12:10;2.53;;;2.33;;
84329;SDS011;74510;42.676;23.432;2024-03-08T14:14:36;3.47;;;3.28;;
84329;SDS011;74510;42.676;23.432;2024-03-08T14:17:01;1.55;;;1.13;;
84329;SDS011;74510;42.676;23.432;2024-03-08T14:19:28;2.67;;;1.10;;
84329;SDS011;74510;42.676;23.432;2024-03-08T14:21:55;1.88;;;1.35;;
84329;SDS011;74510;42.676;23.432;2024-03-08T14:24:21;2.13;;;1.45;;
84329;SDS011;74510;42.676;23.432;2024-03-08T14:26:47;2.10;;;1.35;;
84329;SDS011;74510;42.676;23.432;2024-03-08T14:29:14;1.30;;;1.20;;
84329;SDS011;74510;42.676;23.432;2024-03-08T14:31:40;1.58;;;1.23;;
84329;SDS011;74510;42.676;23.432;2024-03-08T14:34:06;1.92;;;1.27;;
84329;SDS011;74510;42.676;23.432;2024-03-08T14:36:32;2.63;;;1.27;;
84329;SDS011;74510;42.676;23.432;2024-03-08T14:38:58;2.15;;;1.13;;
84329;SDS011;74510;42.676;23.432;2024-03-08T14:41:23;1.92;;;1.40;;
84329;SDS011;74510;42.676;23.432;2024-03-08T14:43:49;1.95;;;1.48;;
84329;SDS011;74510;42.676;23.432;2024-03-08T14:46:14;2.22;;;0.90;;
84329;SDS011;74510;42.676;23.432;2024-03-08T14:48:45;3.13;;;1.27;;
84329;SDS011;74510;42.676;23.432;2024-03-08T14:51:16;1.48;;;1.23;;